Time,TemperatureF,DewpointF,PressureIn,WindDirection,WindDirectionDegrees,WindSpeedMPH,WindSpeedGustMPH,Humidity,HourlyPrecipIn,Conditions,Clouds,dailyrainin,SoftwareType,DateUTC
2013-07-10 00:02:00,71.6,67.5,29.65,WNW,293,0.0,0.0,87,0.00,,,0.00,WUHU216HW,2013-07-10 05:02:00,
2013-07-10 00:07:00,71.4,67.3,29.65,WNW,293,0.0,0.0,87,0.00,,,0.00,WUHU216HW,2013-07-10 05:07:00,
2013-07-10 00:12:00,71.4,67.3,29.65,WNW,293,0.0,0.0,87,0.00,,,0.00,WUHU216HW,2013-07-10 05:12:00,
2013-07-10 00:17:00,71.4,67.3,29.64,WNW,293,0.0,0.0,87,0.00,,,0.00,WUHU216HW,2013-07-10 05:17:00,
2013-07-10 00:22:00,71.2,67.1,29.64,WNW,293,0.0,0.0,87,0.00,,,0.00,WUHU216HW,2013-07-10 05:22:00,
2013-07-10 00:27:00,71.2,67.1,29.64,WNW,293,0.0,0.0,87,0.00,,,0.00,WUHU216HW,2013-07-10 05:27:00,
2013-07-10 00:32:00,71.2,67.4,29.63,WNW,293,0.0,0.0,88,0.00,,,0.00,WUHU216HW,2013-07-10 05:32:00,
2013-07-10 00:37:00,71.2,67.4,29.63,WNW,293,0.0,0.0,88,0.00,,,0.00,WUHU216HW,2013-07-10 05:37:00,
2013-07-10 00:42:00,71.2,67.4,29.63,WNW,293,0.0,0.0,88,0.00,,,0.00,WUHU216HW,2013-07-10 05:42:00,
2013-07-10 00:47:00,71.4,68.0,29.64,WNW,293,0.0,0.0,89,0.00,,,0.00,WUHU216HW,2013-07-10 05:47:00,
2013-07-10 00:52:00,71.4,68.0,29.64,WNW,293,0.0,0.0,89,0.00,,,0.00,WUHU216HW,2013-07-10 05:52:00,
2013-07-10 00:57:00,71.4,68.0,29.64,WNW,293,0.0,0.0,89,0.00,,,0.00,WUHU216HW,2013-07-10 05:57:00,
2013-07-10 01:02:00,71.4,68.0,29.64,WNW,293,0.0,0.0,89,0.00,,,0.00,WUHU216HW,2013-07-10 06:02:00,
2013-07-10 01:07:00,71.6,68.1,29.64,WNW,293,0.0,0.0,89,0.00,,,0.00,WUHU216HW,2013-07-10 06:07:00,
2013-07-10 01:12:00,71.4,68.0,29.64,WNW,293,0.0,0.0,89,0.00,,,0.00,WUHU216HW,2013-07-10 06:12:00,
2013-07-10 01:17:00,71.4,68.0,29.64,WNW,293,0.0,0.0,89,0.00,,,0.00,WUHU216HW,2013-07-10 06:17:00,
2013-07-10 01:22:00,71.4,68.0,29.64,SSW,203,0.0,0.0,89,0.00,,,0.00,WUHU216HW,2013-07-10 06:22:00,
2013-07-10 01:27:00,71.4,68.0,29.63,South,180,0.0,0.0,89,0.00,,,0.00,WUHU216HW,2013-07-10 06:27:00,
2013-07-10 01:32:00,71.4,68.0,29.64,South,180,0.0,0.0,89,0.00,,,0.00,WUHU216HW,2013-07-10 06:32:00,
2013-07-10 01:37:00,71.4,68.0,29.64,South,180,0.0,0.0,89,0.00,,,0.00,WUHU216HW,2013-07-10 06:37:00,
2013-07-10 01:42:00,71.4,68.0,29.63,South,180,0.0,0.0,89,0.00,,,0.00,WUHU216HW,2013-07-10 06:42:00,
2013-07-10 01:47:00,71.2,67.8,29.63,NW,315,0.0,0.0,89,0.00,,,0.00,WUHU216HW,2013-07-10 06:47:00,
2013-07-10 01:52:00,71.2,67.8,29.63,NW,315,0.0,0.0,89,0.00,,,0.00,WUHU216HW,2013-07-10 06:52:00,
2013-07-10 01:57:00,71.0,67.1,29.63,NW,315,0.0,0.0,88,0.00,,,0.00,WUHU216HW,2013-07-10 06:57:00,
2013-07-10 02:02:00,70.8,67.1,29.63,NW,315,0.0,0.0,88,0.00,,,0.00,WUHU216HW,2013-07-10 07:02:00,
2013-07-10 02:07:00,70.5,66.7,29.64,NW,315,0.0,0.0,88,0.00,,,0.00,WUHU216HW,2013-07-10 07:07:00,
2013-07-10 02:12:00,70.5,66.7,29.63,NW,315,0.0,0.0,88,0.00,,,0.00,WUHU216HW,2013-07-10 07:12:00,
2013-07-10 02:17:00,70.3,66.9,29.63,NW,315,0.0,0.0,89,0.00,,,0.00,WUHU216HW,2013-07-10 07:17:00,
2013-07-10 02:22:00,70.3,66.9,29.64,NW,315,0.0,0.0,89,0.00,,,0.00,WUHU216HW,2013-07-10 07:22:00,
2013-07-10 02:27:00,70.1,66.7,29.63,NW,315,0.0,0.0,89,0.00,,,0.00,WUHU216HW,2013-07-10 07:27:00,
2013-07-10 02:32:00,69.9,66.5,29.63,NW,315,0.0,0.0,89,0.00,,,0.00,WUHU216HW,2013-07-10 07:32:00,
2013-07-10 02:37:00,69.9,66.5,29.63,NW,315,0.0,0.0,89,0.00,,,0.00,WUHU216HW,2013-07-10 07:37:00,
2013-07-10 02:42:00,69.8,66.3,29.64,NW,315,0.0,0.0,89,0.00,,,0.00,WUHU216HW,2013-07-10 07:42:00,
2013-07-10 02:47:00,69.8,66.7,29.63,NW,315,0.0,0.0,90,0.00,,,0.00,WUHU216HW,2013-07-10 07:47:00,
2013-07-10 02:52:00,69.8,66.7,29.63,NW,315,0.0,0.0,90,0.00,,,0.00,WUHU216HW,2013-07-10 07:52:00,
2013-07-10 02:57:00,69.6,66.2,29.63,NW,315,0.0,0.0,89,0.00,,,0.00,WUHU216HW,2013-07-10 07:57:00,
2013-07-10 03:02:00,69.6,66.2,29.63,NW,315,0.0,0.0,89,0.00,,,0.00,WUHU216HW,2013-07-10 08:02:00,
2013-07-10 03:07:00,69.4,66.0,29.63,NW,315,0.0,0.0,89,0.00,,,0.00,WUHU216HW,2013-07-10 08:07:00,
2013-07-10 03:12:00,69.4,66.3,29.63,NW,315,0.0,0.0,90,0.00,,,0.00,WUHU216HW,2013-07-10 08:12:00,
2013-07-10 03:17:00,69.2,66.2,29.63,NW,315,0.0,0.0,90,0.00,,,0.00,WUHU216HW,2013-07-10 08:17:00,
2013-07-10 03:22:00,69.0,66.0,29.64,NW,315,0.0,0.0,90,0.00,,,0.00,WUHU216HW,2013-07-10 08:22:00,
2013-07-10 03:27:00,69.0,66.0,29.64,NW,315,0.0,0.0,90,0.00,,,0.00,WUHU216HW,2013-07-10 08:27:00,
2013-07-10 03:32:00,68.9,65.8,29.64,NW,315,0.0,0.0,90,0.00,,,0.00,WUHU216HW,2013-07-10 08:32:00,
2013-07-10 03:37:00,68.7,65.6,29.64,NW,315,0.0,0.0,90,0.00,,,0.00,WUHU216HW,2013-07-10 08:37:00,
2013-07-10 03:42:00,68.7,65.6,29.64,NW,315,0.0,0.0,90,0.00,,,0.00,WUHU216HW,2013-07-10 08:42:00,
2013-07-10 03:47:00,68.9,66.1,29.64,NW,315,0.0,0.0,90,0.00,,,0.00,WUHU216HW,2013-07-10 08:47:00,
2013-07-10 03:52:00,68.9,66.1,29.64,NW,315,0.0,0.0,91,0.00,,,0.00,WUHU216HW,2013-07-10 08:52:00,
2013-07-10 03:57:00,68.9,66.1,29.64,NW,315,0.0,0.0,91,0.00,,,0.00,WUHU216HW,2013-07-10 08:57:00,
2013-07-10 04:02:00,68.7,65.9,29.64,NW,315,0.0,0.0,91,0.00,,,0.00,WUHU216HW,2013-07-10 09:02:00,
2013-07-10 04:07:00,68.7,65.9,29.64,NW,315,0.0,0.0,91,0.00,,,0.00,WUHU216HW,2013-07-10 09:07:00,
2013-07-10 04:12:00,68.7,65.9,29.64,NW,315,0.0,0.0,91,0.00,,,0.00,WUHU216HW,2013-07-10 09:12:00,
2013-07-10 04:17:00,68.5,65.7,29.65,NW,315,0.0,0.0,91,0.00,,,0.00,WUHU216HW,2013-07-10 09:17:00,
2013-07-10 04:22:00,68.3,65.7,29.65,NW,315,0.0,0.0,91,0.00,,,0.00,WUHU216HW,2013-07-10 09:22:00,
2013-07-10 04:27:00,68.1,65.4,29.65,NW,315,0.0,0.0,91,0.00,,,0.00,WUHU216HW,2013-07-10 09:27:00,
2013-07-10 04:32:00,68.1,65.4,29.66,NW,315,0.0,0.0,91,0.00,,,0.00,WUHU216HW,2013-07-10 09:32:00,
2013-07-10 04:37:00,67.8,65.0,29.66,NW,315,0.0,0.0,91,0.00,,,0.00,WUHU216HW,2013-07-10 09:37:00,
2013-07-10 04:42:00,67.8,65.0,29.66,NW,315,0.0,0.0,91,0.00,,,0.00,WUHU216HW,2013-07-10 09:42:00,
2013-07-10 04:47:00,67.8,65.0,29.66,NW,315,0.0,0.0,91,0.00,,,0.00,WUHU216HW,2013-07-10 09:47:00,
2013-07-10 04:52:00,67.8,65.0,29.66,NW,315,0.0,0.0,91,0.00,,,0.00,WUHU216HW,2013-07-10 09:52:00,
2013-07-10 04:57:00,67.8,65.0,29.66,NW,315,0.0,0.0,91,0.00,,,0.00,WUHU216HW,2013-07-10 09:57:00,
2013-07-10 05:02:00,67.8,65.0,29.67,NW,315,0.0,0.0,91,0.00,,,0.00,WUHU216HW,2013-07-10 10:02:00,
2013-07-10 05:07:00,68.0,65.7,29.66,NE,45,0.0,0.0,92,0.00,,,0.00,WUHU216HW,2013-07-10 10:07:00,
2013-07-10 05:12:00,68.1,65.7,29.67,WNW,293,0.0,0.0,92,0.00,,,0.00,WUHU216HW,2013-07-10 10:12:00,
2013-07-10 05:17:00,67.8,65.3,29.67,WNW,293,0.0,0.0,92,0.00,,,0.00,WUHU216HW,2013-07-10 10:17:00,
2013-07-10 05:22:00,67.8,65.3,29.67,WNW,293,0.0,0.0,92,0.00,,,0.00,WUHU216HW,2013-07-10 10:22:00,
2013-07-10 05:27:00,67.8,65.3,29.67,WNW,293,0.0,0.0,92,0.00,,,0.00,WUHU216HW,2013-07-10 10:27:00,
2013-07-10 05:32:00,67.8,65.3,29.67,WNW,293,0.0,0.0,92,0.00,,,0.00,WUHU216HW,2013-07-10 10:32:00,
2013-07-10 05:37:00,67.8,65.3,29.68,SSW,203,0.0,0.0,92,0.00,,,0.00,WUHU216HW,2013-07-10 10:37:00,
2013-07-10 05:40:00,67.8,65.3,29.68,WSW,248,0.0,0.0,92,0.00,,,0.00,WUHU216HW,2013-07-10 10:40:00,
2013-07-10 16:43:00,80.7,58.5,29.77,WNW,293,0.0,0.0,47,0.00,,,0.00,WUHU216HW,2013-07-10 21:43:00,
2013-07-10 16:48:00,80.4,60.0,29.77,WNW,293,0.0,0.0,50,0.00,,,0.00,WUHU216HW,2013-07-10 21:48:00,
2013-07-10 16:53:00,80.7,60.9,29.77,SSE,158,0.0,0.0,51,0.00,,,0.00,WUHU216HW,2013-07-10 21:53:00,
2013-07-10 16:58:00,81.6,62.2,29.76,SSE,158,0.0,0.0,52,0.00,,,0.00,WUHU216HW,2013-07-10 21:58:00,
2013-07-10 17:03:00,81.6,60.6,29.77,SSE,158,0.0,0.0,49,0.00,,,0.00,WUHU216HW,2013-07-10 22:03:00,
2013-07-10 17:08:00,82.0,60.3,29.76,NNW,338,0.0,0.0,48,0.00,,,0.00,WUHU216HW,2013-07-10 22:08:00,
2013-07-10 17:13:00,82.2,61.7,29.77,WNW,293,0.0,0.0,50,0.00,,,0.00,WUHU216HW,2013-07-10 22:13:00,
2013-07-10 17:18:00,82.5,61.4,29.77,WNW,293,0.0,3.1,49,0.00,,,0.00,WUHU216HW,2013-07-10 22:18:00,
2013-07-10 17:23:00,82.7,60.8,29.77,SSE,158,0.0,3.1,49,0.00,,,0.00,WUHU216HW,2013-07-10 22:23:00,
2013-07-10 17:28:00,82.5,60.8,29.76,NW,315,0.0,2.6,48,0.00,,,0.00,WUHU216HW,2013-07-10 22:28:00,
2013-07-10 17:33:00,82.7,60.3,29.77,WNW,293,0.0,2.6,47,0.00,,,0.00,WUHU216HW,2013-07-10 22:33:00,
2013-07-10 17:38:00,82.5,60.2,29.77,NW,315,0.0,7.8,47,0.00,,,0.00,WUHU216HW,2013-07-10 22:38:00,
2013-07-10 17:43:00,82.5,60.8,29.76,SW,225,0.0,7.8,48,0.00,,,0.00,WUHU216HW,2013-07-10 22:43:00,
2013-07-10 17:48:00,82.2,59.8,29.76,NW,315,2.4,2.4,47,0.00,,,0.00,WUHU216HW,2013-07-10 22:48:00,
2013-07-10 17:53:00,81.5,59.2,29.76,WNW,293,0.0,2.4,47,0.00,,,0.00,WUHU216HW,2013-07-10 22:53:00,
2013-07-10 17:58:00,81.1,58.2,29.76,NW,315,0.0,0.0,46,0.00,,,0.00,WUHU216HW,2013-07-10 22:58:00,
2013-07-10 18:03:00,82.0,59.7,29.77,NW,315,0.0,0.0,47,0.00,,,0.00,WUHU216HW,2013-07-10 23:03:00,
2013-07-10 18:08:00,86.5,61.3,29.76,WNW,293,0.0,0.6,43,0.00,,,0.00,WUHU216HW,2013-07-10 23:08:00,
2013-07-10 18:13:00,89.7,61.4,29.77,NW,315,0.0,0.6,39,0.00,,,0.00,WUHU216HW,2013-07-10 23:13:00,
2013-07-10 18:19:00,91.7,60.8,29.77,NW,315,5.5,5.5,36,0.00,,,0.00,WUHU216HW,2013-07-10 23:19:00,
2013-07-10 18:24:00,93.3,61.4,29.77,SW,225,0.0,5.5,35,0.00,,,0.00,WUHU216HW,2013-07-10 23:24:00,
2013-07-10 18:29:00,95.1,62.3,29.77,WSW,248,0.0,0.0,34,0.00,,,0.00,WUHU216HW,2013-07-10 23:29:00,
2013-07-10 18:34:00,94.8,61.3,29.77,SW,225,0.0,0.0,33,0.00,,,0.00,WUHU216HW,2013-07-10 23:34:00,
2013-07-10 18:39:00,90.3,59.5,29.77,East,90,0.0,0.0,36,0.00,,,0.00,WUHU216HW,2013-07-10 23:39:00,
2013-07-10 18:44:00,86.1,58.3,29.77,South,180,0.0,0.0,39,0.00,,,0.00,WUHU216HW,2013-07-10 23:44:00,
2013-07-10 18:49:00,82.9,57.0,29.77,SW,225,0.2,0.2,41,0.00,,,0.00,WUHU216HW,2013-07-10 23:49:00,
2013-07-10 18:54:00,81.3,56.6,29.77,WNW,293,0.0,0.2,43,0.00,,,0.00,WUHU216HW,2013-07-10 23:54:00,
2013-07-10 18:59:00,80.4,57.0,29.77,WNW,293,0.0,0.0,45,0.00,,,0.00,WUHU216HW,2013-07-10 23:59:00,
2013-07-10 19:04:00,79.3,57.2,29.77,East,90,0.0,0.0,47,0.00,,,0.00,WUHU216HW,2013-07-11 00:04:00,
2013-07-10 19:09:00,78.4,57.7,29.77,East,90,0.0,0.0,49,0.00,,,0.00,WUHU216HW,2013-07-11 00:09:00,
2013-07-10 19:14:00,77.0,57.6,29.77,East,90,0.0,0.0,51,0.00,,,0.00,WUHU216HW,2013-07-11 00:14:00,
2013-07-10 19:19:00,75.9,57.5,29.77,East,90,0.0,0.0,53,0.00,,,0.00,WUHU216HW,2013-07-11 00:19:00,
2013-07-10 19:24:00,75.0,57.2,29.77,East,90,0.0,0.0,54,0.00,,,0.00,WUHU216HW,2013-07-11 00:24:00,
2013-07-10 19:29:00,74.4,57.5,29.77,East,90,0.0,0.0,56,0.00,,,0.00,WUHU216HW,2013-07-11 00:29:00,
2013-07-10 19:34:00,73.7,57.4,29.77,East,90,0.0,0.0,57,0.00,,,0.00,WUHU216HW,2013-07-11 00:34:00,
2013-07-10 19:39:00,73.0,56.8,29.77,NNW,338,0.0,0.0,57,0.00,,,0.00,WUHU216HW,2013-07-11 00:39:00,
2013-07-10 19:44:00,72.6,56.9,29.77,NNW,338,0.0,0.0,58,0.00,,,0.00,WUHU216HW,2013-07-11 00:44:00,
2013-07-10 19:49:00,71.9,56.8,29.78,NNW,338,0.0,0.0,59,0.00,,,0.00,WUHU216HW,2013-07-11 00:49:00,
2013-07-10 19:55:00,71.2,57.2,29.77,NNW,338,0.0,0.0,61,0.00,,,0.00,WUHU216HW,2013-07-11 00:55:00,
2013-07-10 20:00:00,70.8,56.7,29.77,NNW,338,0.0,0.0,61,0.00,,,0.00,WUHU216HW,2013-07-11 01:00:00,
2013-07-10 20:05:00,70.1,56.5,29.77,NNW,338,0.0,0.0,62,0.00,,,0.00,WUHU216HW,2013-07-11 01:05:00,
2013-07-10 20:10:00,69.6,56.4,29.78,NNW,338,0.0,0.0,63,0.00,,,0.00,WUHU216HW,2013-07-11 01:10:00,
2013-07-10 20:15:00,69.0,56.3,29.78,NNW,338,0.0,0.0,64,0.00,,,0.00,WUHU216HW,2013-07-11 01:15:00,
2013-07-10 20:20:00,68.5,56.4,29.79,NNW,338,0.0,0.0,65,0.00,,,0.00,WUHU216HW,2013-07-11 01:20:00,
2013-07-10 20:25:00,68.1,55.9,29.78,NNW,338,0.0,0.0,65,0.00,,,0.00,WUHU216HW,2013-07-11 01:25:00,
2013-07-10 20:30:00,67.6,55.8,29.79,NNW,338,0.0,0.0,66,0.00,,,0.00,WUHU216HW,2013-07-11 01:30:00,
2013-07-10 20:35:00,67.2,55.9,29.78,NNW,338,0.0,0.0,67,0.00,,,0.00,WUHU216HW,2013-07-11 01:35:00,
2013-07-10 20:40:00,66.7,55.8,29.78,NNW,338,0.0,0.0,68,0.00,,,0.00,WUHU216HW,2013-07-11 01:40:00,
2013-07-10 20:45:00,66.3,55.8,29.79,NNW,338,0.0,0.0,69,0.00,,,0.00,WUHU216HW,2013-07-11 01:45:00,
2013-07-10 20:50:00,66.0,55.5,29.79,NNW,338,0.0,0.0,69,0.00,,,0.00,WUHU216HW,2013-07-11 01:50:00,
2013-07-10 20:55:00,65.8,55.7,29.79,NNW,338,0.0,0.0,70,0.00,,,0.00,WUHU216HW,2013-07-11 01:55:00,
2013-07-10 21:00:00,65.3,55.6,29.79,NNW,338,0.0,0.0,71,0.00,,,0.00,WUHU216HW,2013-07-11 02:00:00,
2013-07-10 21:05:00,65.1,55.5,29.80,NNW,338,0.0,0.0,71,0.00,,,0.00,WUHU216HW,2013-07-11 02:05:00,
2013-07-10 21:10:00,64.7,55.5,29.80,NNW,338,0.0,0.0,72,0.00,,,0.00,WUHU216HW,2013-07-11 02:10:00,
2013-07-10 21:15:00,64.5,55.3,29.80,NNW,338,0.0,0.0,72,0.00,,,0.00,WUHU216HW,2013-07-11 02:15:00,
2013-07-10 21:20:00,64.2,55.4,29.81,NNW,338,0.0,0.0,73,0.00,,,0.00,WUHU216HW,2013-07-11 02:20:00,
2013-07-10 21:25:00,64.0,55.2,29.81,NNW,338,0.0,0.0,73,0.00,,,0.00,WUHU216HW,2013-07-11 02:25:00,
2013-07-10 21:30:00,63.6,55.2,29.81,NNW,338,0.0,0.0,74,0.00,,,0.00,WUHU216HW,2013-07-11 02:30:00,
2013-07-10 21:35:00,63.5,55.4,29.82,NNW,338,0.0,0.0,75,0.00,,,0.00,WUHU216HW,2013-07-11 02:35:00,
2013-07-10 22:30:00,62.0,55.4,29.83,NNW,338,0.0,0.0,79,0.00,,,0.00,WUHU216HW,2013-07-11 03:30:00,
2013-07-10 22:35:00,61.8,55.2,29.83,NNW,338,0.0,0.0,79,0.00,,,0.00,WUHU216HW,2013-07-11 03:35:00,
2013-07-10 22:40:00,61.7,55.1,29.83,NNW,338,0.0,0.0,79,0.00,,,0.00,WUHU216HW,2013-07-11 03:40:00,
2013-07-10 22:46:00,61.5,55.3,29.83,NNW,338,0.0,0.0,80,0.00,,,0.00,WUHU216HW,2013-07-11 03:46:00,
2013-07-10 22:51:00,61.3,55.1,29.83,NNW,338,0.0,0.0,80,0.00,,,0.00,WUHU216HW,2013-07-11 03:51:00,
2013-07-10 22:56:00,61.3,55.4,29.83,NNW,338,0.0,0.0,81,0.00,,,0.00,WUHU216HW,2013-07-11 03:56:00,
2013-07-10 23:01:00,61.3,55.4,29.83,NNW,338,0.0,0.0,81,0.00,,,0.00,WUHU216HW,2013-07-11 04:01:00,
2013-07-10 23:02:00,61.3,55.4,29.83,NNW,338,0.0,0.0,81,0.00,,,0.00,WUHU216HW,2013-07-11 04:02:00,
2013-07-10 23:07:00,61.3,55.4,29.83,NNW,338,0.0,0.0,81,0.00,,,0.00,WUHU216HW,2013-07-11 04:07:00,
2013-07-10 23:12:00,61.3,55.4,29.84,NNW,338,0.0,0.0,81,0.00,,,0.00,WUHU216HW,2013-07-11 04:12:00,
2013-07-10 23:18:00,61.3,55.4,29.83,NNW,338,0.0,0.0,81,0.00,,,0.00,WUHU216HW,2013-07-11 04:18:00,